sensor_id;sensor_type;location;lat;lon;timestamp;pressure;altitude;pressure_sealevel;temperature;humidity
56038;BME280;41907;47.848;9.000;2022-07-05T00:02:01;96146.50;;;16.52;100.00
56038;BME280;41907;47.848;9.000;2022-07-05T00:04:26;96146.28;;;16.45;100.00
56038;BME280;41907;47.848;9.000;2022-07-05T00:06:52;96146.53;;;16.40;100.00
56038;BME280;41907;47.848;9.000;2022-07-05T00:09:35;96142.81;;;16.45;100.00
56038;BME280;41907;47.848;9.000;2022-07-05T00:12:01;96153.72;;;16.48;100.00
56038;BME280;41907;47.848;9.000;2022-07-05T00:14:27;96154.03;;;16.47;100.00
56038;BME280;41907;47.848;9.000;2022-07-05T00:16:52;96149.31;;;16.44;100.00
56038;BME280;41907;47.848;9.000;2022-07-05T00:19:17;96150.88;;;16.45;100.00
56038;BME280;41907;47.848;9.000;2022-07-05T00:21:43;96143.59;;;16.45;100.00
56038;BME280;41907;47.848;9.000;2022-07-05T00:24:08;96147.22;;;16.49;100.00
56038;BME280;41907;47.848;9.000;2022-07-05T00:26:33;96151.13;;;16.52;100.00
56038;BME280;41907;47.848;9.000;2022-07-05T00:28:59;96147.44;;;16.56;100.00
56038;BME280;41907;47.848;9.000;2022-07-05T00:31:24;96145.53;;;16.57;100.00
56038;BME280;41907;47.848;9.000;2022-07-05T00:33:49;96147.75;;;16.55;100.00
56038;BME280;41907;47.848;9.000;2022-07-05T00:36:15;96152.00;;;16.44;100.00
56038;BME280;41907;47.848;9.000;2022-07-05T00:38:40;96148.09;;;16.41;100.00
56038;BME280;41907;47.848;9.000;2022-07-05T00:41:06;96164.56;;;16.52;100.00
56038;BME280;41907;47.848;9.000;2022-07-05T00:43:31;96158.75;;;16.50;100.00
56038;BME280;41907;47.848;9.000;2022-07-05T00:45:56;96147.22;;;16.49;100.00
56038;BME280;41907;47.848;9.000;2022-07-05T00:48:22;96152.13;;;16.47;100.00
56038;BME280;41907;47.848;9.000;2022-07-05T00:50:50;96154.59;;;16.40;100.00
56038;BME280;41907;47.848;9.000;2022-07-05T00:53:15;96150.75;;;16.29;100.00
56038;BME280;41907;47.848;9.000;2022-07-05T00:55:43;96152.84;;;16.23;100.00
56038;BME280;41907;47.848;9.000;2022-07-05T00:58:09;96149.84;;;16.25;100.00
56038;BME280;41907;47.848;9.000;2022-07-05T01:00:34;96158.59;;;16.22;100.00
56038;BME280;41907;47.848;9.000;2022-07-05T01:03:00;96154.84;;;16.14;100.00
56038;BME280;41907;47.848;9.000;2022-07-05T01:05:27;96154.78;;;16.23;100.00
56038;BME280;41907;47.848;9.000;2022-07-05T01:07:52;96143.75;;;16.16;100.00
56038;BME280;41907;47.848;9.000;2022-07-05T01:10:18;96141.28;;;16.11;100.00
56038;BME280;41907;47.848;9.000;2022-07-05T01:12:44;96142.72;;;16.08;100.00
56038;BME280;41907;47.848;9.000;2022-07-05T01:15:09;96142.59;;;16.05;100.00
56038;BME280;41907;47.848;9.000;2022-07-05T01:17:35;96141.16;;;16.07;100.00
56038;BME280;41907;47.848;9.000;2022-07-05T01:20:04;96136.97;;;15.97;100.00
56038;BME280;41907;47.848;9.000;2022-07-05T01:22:53;96140.69;;;16.05;100.00
56038;BME280;41907;47.848;9.000;2022-07-05T01:25:20;96137.56;;;16.03;100.00
56038;BME280;41907;47.848;9.000;2022-07-05T01:27:47;96135.22;;;16.02;100.00
56038;BME280;41907;47.848;9.000;2022-07-05T01:30:13;96131.59;;;15.97;100.00
56038;BME280;41907;47.848;9.000;2022-07-05T01:32:38;96130.81;;;15.97;100.00
56038;BME280;41907;47.848;9.000;2022-07-05T01:35:04;96127.56;;;15.91;100.00
56038;BME280;41907;47.848;9.000;2022-07-05T01:37:30;96130.34;;;15.95;100.00
56038;BME280;41907;47.848;9.000;2022-07-05T01:39:56;96131.13;;;15.95;100.00
56038;BME280;41907;47.848;9.000;2022-07-05T01:42:22;96130.78;;;15.85;100.00
56038;BME280;41907;47.848;9.000;2022-07-05T01:44:48;96134.69;;;15.87;100.00
56038;BME280;41907;47.848;9.000;2022-07-05T01:47:15;96119.03;;;15.89;100.00
56038;BME280;41907;47.848;9.000;2022-07-05T01:49:45;96130.25;;;15.91;100.00
56038;BME280;41907;47.848;9.000;2022-07-05T01:52:12;96132.28;;;15.94;100.00
56038;BME280;41907;47.848;9.000;2022-07-05T01:54:38;96135.03;;;15.86;100.00
56038;BME280;41907;47.848;9.000;2022-07-05T01:57:07;96135.81;;;15.86;100.00
56038;BME280;41907;47.848;9.000;2022-07-05T01:59:33;96132.81;;;15.88;100.00
56038;BME280;41907;47.848;9.000;2022-07-05T02:02:00;96130.53;;;15.78;100.00
56038;BME280;41907;47.848;9.000;2022-07-05T02:04:26;96139.28;;;15.75;100.00
56038;BME280;41907;47.848;9.000;2022-07-05T02:06:51;96140.50;;;15.77;100.00
56038;BME280;41907;47.848;9.000;2022-07-05T02:09:16;96136.44;;;15.71;100.00
56038;BME280;41907;47.848;9.000;2022-07-05T02:11:42;96135.66;;;15.71;100.00
56038;BME280;41907;47.848;9.000;2022-07-05T02:14:07;96137.09;;;15.68;100.00
56038;BME280;41907;47.848;9.000;2022-07-05T02:16:33;96129.91;;;15.60;100.00
56038;BME280;41907;47.848;9.000;2022-07-05T02:18:58;96131.78;;;15.59;100.00
56038;BME280;41907;47.848;9.000;2022-07-05T02:21:24;96129.31;;;15.54;100.00
56038;BME280;41907;47.848;9.000;2022-07-05T02:23:49;96129.34;;;15.25;100.00
56038;BME280;41907;47.848;9.000;2022-07-05T02:26:15;96128.72;;;15.28;100.00
56038;BME280;41907;47.848;9.000;2022-07-05T02:28:40;96131.03;;;15.30;100.00
56038;BME280;41907;47.848;9.000;2022-07-05T02:31:06;96141.47;;;15.31;100.00
56038;BME280;41907;47.848;9.000;2022-07-05T02:33:32;96132.44;;;15.36;100.00
56038;BME280;41907;47.848;9.000;2022-07-05T02:35:57;96129.53;;;15.41;100.00
56038;BME280;41907;47.848;9.000;2022-07-05T02:38:23;96146.28;;;15.46;100.00
56038;BME280;41907;47.848;9.000;2022-07-05T02:40:48;96143.44;;;15.43;100.00
56038;BME280;41907;47.848;9.000;2022-07-05T02:43:14;96138.88;;;15.43;100.00
56038;BME280;41907;47.848;9.000;2022-07-05T02:45:39;96142.47;;;15.47;100.00
56038;BME280;41907;47.848;9.000;2022-07-05T02:48:04;96131.06;;;15.50;100.00
56038;BME280;41907;47.848;9.000;2022-07-05T02:50:30;96144.16;;;15.52;100.00
56038;BME280;41907;47.848;9.000;2022-07-05T02:52:55;96147.34;;;15.54;100.00
56038;BME280;41907;47.848;9.000;2022-07-05T02:55:20;96149.38;;;15.57;100.00
56038;BME280;41907;47.848;9.000;2022-07-05T02:57:46;96146.50;;;15.62;100.00
56038;BME280;41907;47.848;9.000;2022-07-05T03:00:12;96138.09;;;15.63;100.00
56038;BME280;41907;47.848;9.000;2022-07-05T03:02:37;96148.72;;;15.60;100.00
56038;BME280;41907;47.848;9.000;2022-07-05T03:05:02;96150.97;;;15.49;100.00
56038;BME280;41907;47.848;9.000;2022-07-05T03:07:28;96154.78;;;15.27;100.00
56038;BME280;41907;47.848;9.000;2022-07-05T03:09:53;96150.72;;;15.21;100.00
56038;BME280;41907;47.848;9.000;2022-07-05T03:12:19;96154.97;;;15.22;100.00
56038;BME280;41907;47.848;9.000;2022-07-05T03:14:44;96159.50;;;15.31;100.00
56038;BME280;41907;47.848;9.000;2022-07-05T03:17:09;96163.69;;;15.40;100.00
56038;BME280;41907;47.848;9.000;2022-07-05T03:19:35;96157.41;;;15.36;100.00
56038;BME280;41907;47.848;9.000;2022-07-05T03:22:00;96160.38;;;15.43;100.00
56038;BME280;41907;47.848;9.000;2022-07-05T03:24:25;96163.06;;;15.43;100.00
56038;BME280;41907;47.848;9.000;2022-07-05T03:26:51;96173.00;;;15.43;100.00
56038;BME280;41907;47.848;9.000;2022-07-05T03:29:16;96172.56;;;15.41;100.00
56038;BME280;41907;47.848;9.000;2022-07-05T03:31:41;96169.06;;;15.40;100.00
56038;BME280;41907;47.848;9.000;2022-07-05T03:34:07;96170.13;;;15.48;100.00
56038;BME280;41907;47.848;9.000;2022-07-05T03:36:32;96169.34;;;15.47;100.00
56038;BME280;41907;47.848;9.000;2022-07-05T03:38:58;96172.63;;;15.53;100.00
56038;BME280;41907;47.848;9.000;2022-07-05T03:41:23;96181.81;;;15.52;100.00
56038;BME280;41907;47.848;9.000;2022-07-05T03:43:48;96178.19;;;15.56;100.00
56038;BME280;41907;47.848;9.000;2022-07-05T03:46:14;96176.94;;;15.54;100.00
56038;BME280;41907;47.848;9.000;2022-07-05T03:48:39;96174.53;;;15.52;100.00
56038;BME280;41907;47.848;9.000;2022-07-05T03:51:05;96180.03;;;15.35;100.00
56038;BME280;41907;47.848;9.000;2022-07-05T03:53:30;96182.03;;;15.17;100.00
56038;BME280;41907;47.848;9.000;2022-07-05T03:55:55;96165.88;;;14.97;100.00
56038;BME280;41907;47.848;9.000;2022-07-05T03:58:21;96167.63;;;14.93;100.00
56038;BME280;41907;47.848;9.000;2022-07-05T04:00:46;96171.34;;;14.79;100.00
56038;BME280;41907;47.848;9.000;2022-07-05T04:03:11;96173.88;;;14.76;100.00
56038;BME280;41907;47.848;9.000;2022-07-05T04:05:37;96174.78;;;14.88;100.00
56038;BME280;41907;47.848;9.000;2022-07-05T04:08:02;96179.59;;;15.04;100.00
56038;BME280;41907;47.848;9.000;2022-07-05T04:10:28;96171.84;;;15.02;100.00
56038;BME280;41907;47.848;9.000;2022-07-05T04:12:54;96176.91;;;15.04;100.00
56038;BME280;41907;47.848;9.000;2022-07-05T04:15:19;96175.47;;;15.06;100.00
56038;BME280;41907;47.848;9.000;2022-07-05T04:17:53;96174.09;;;15.00;100.00
56038;BME280;41907;47.848;9.000;2022-07-05T04:20:19;96176.56;;;15.05;100.00
56038;BME280;41907;47.848;9.000;2022-07-05T04:22:49;96179.91;;;15.02;100.00
56038;BME280;41907;47.848;9.000;2022-07-05T04:25:14;96175.53;;;14.98;100.00
56038;BME280;41907;47.848;9.000;2022-07-05T04:27:47;96182.75;;;15.06;100.00
56038;BME280;41907;47.848;9.000;2022-07-05T04:30:13;96186.16;;;15.15;100.00
56038;BME280;41907;47.848;9.000;2022-07-05T04:32:39;96183.88;;;15.25;100.00
56038;BME280;41907;47.848;9.000;2022-07-05T04:35:05;96191.25;;;15.37;100.00
56038;BME280;41907;47.848;9.000;2022-07-05T04:37:31;96182.84;;;15.39;100.00
56038;BME280;41907;47.848;9.000;2022-07-05T04:39:56;96182.19;;;15.42;100.00
56038;BME280;41907;47.848;9.000;2022-07-05T04:42:22;96182.81;;;15.47;100.00
56038;BME280;41907;47.848;9.000;2022-07-05T04:44:47;96178.84;;;15.45;100.00
56038;BME280;41907;47.848;9.000;2022-07-05T04:47:16;96182.31;;;15.54;100.00
56038;BME280;41907;47.848;9.000;2022-07-05T04:49:43;96191.09;;;15.63;100.00
56038;BME280;41907;47.848;9.000;2022-07-05T04:52:09;96196.53;;;15.75;100.00
56038;BME280;41907;47.848;9.000;2022-07-05T04:54:36;96200.84;;;15.88;100.00
56038;BME280;41907;47.848;9.000;2022-07-05T04:57:01;96204.25;;;15.97;100.00
56038;BME280;41907;47.848;9.000;2022-07-05T04:59:27;96204.94;;;16.07;100.00
56038;BME280;41907;47.848;9.000;2022-07-05T05:01:52;96207.56;;;16.15;100.00
56038;BME280;41907;47.848;9.000;2022-07-05T05:04:17;96207.47;;;16.24;100.00
56038;BME280;41907;47.848;9.000;2022-07-05T05:06:43;96207.44;;;16.45;100.00
56038;BME280;41907;47.848;9.000;2022-07-05T05:09:08;96198.31;;;17.19;100.00
56038;BME280;41907;47.848;9.000;2022-07-05T05:11:34;96201.56;;;19.39;94.78
56038;BME280;41907;47.848;9.000;2022-07-05T05:13:59;96209.47;;;20.36;90.31
56038;BME280;41907;47.848;9.000;2022-07-05T05:16:24;96215.19;;;19.42;91.31
56038;BME280;41907;47.848;9.000;2022-07-05T05:18:50;96211.72;;;18.63;96.03
56038;BME280;41907;47.848;9.000;2022-07-05T05:21:15;96221.16;;;19.16;99.72
56038;BME280;41907;47.848;9.000;2022-07-05T05:23:41;96218.03;;;18.67;100.00
56038;BME280;41907;47.848;9.000;2022-07-05T05:26:06;96216.84;;;18.25;100.00
56038;BME280;41907;47.848;9.000;2022-07-05T05:28:31;96214.75;;;17.90;100.00
56038;BME280;41907;47.848;9.000;2022-07-05T05:30:57;96229.50;;;17.80;100.00
56038;BME280;41907;47.848;9.000;2022-07-05T05:33:35;96230.97;;;17.66;100.00
56038;BME280;41907;47.848;9.000;2022-07-05T05:36:02;96237.72;;;17.47;100.00
56038;BME280;41907;47.848;9.000;2022-07-05T05:38:27;96244.59;;;17.33;100.00
56038;BME280;41907;47.848;9.000;2022-07-05T05:40:53;96240.31;;;17.20;100.00
56038;BME280;41907;47.848;9.000;2022-07-05T05:43:18;96246.63;;;17.24;100.00
56038;BME280;41907;47.848;9.000;2022-07-05T05:45:44;96243.91;;;16.99;100.00
56038;BME280;41907;47.848;9.000;2022-07-05T05:48:09;96249.88;;;17.66;100.00
56038;BME280;41907;47.848;9.000;2022-07-05T05:50:37;96251.28;;;17.88;100.00
56038;BME280;41907;47.848;9.000;2022-07-05T05:53:04;96256.63;;;18.40;100.00
56038;BME280;41907;47.848;9.000;2022-07-05T05:55:30;96255.34;;;19.24;99.02
56038;BME280;41907;47.848;9.000;2022-07-05T05:57:56;96253.91;;;19.97;92.34
56038;BME280;41907;47.848;9.000;2022-07-05T06:00:27;96252.44;;;19.64;92.26
56038;BME280;41907;47.848;9.000;2022-07-05T06:02:52;96261.00;;;20.40;91.34
56038;BME280;41907;47.848;9.000;2022-07-05T06:05:18;96256.91;;;21.14;86.76
56038;BME280;41907;47.848;9.000;2022-07-05T06:10:10;96265.09;;;22.16;81.65
56038;BME280;41907;47.848;9.000;2022-07-05T06:12:35;96262.91;;;22.62;77.07
56038;BME280;41907;47.848;9.000;2022-07-05T06:15:01;96271.97;;;22.40;77.95
56038;BME280;41907;47.848;9.000;2022-07-05T06:17:26;96273.75;;;22.92;78.75
56038;BME280;41907;47.848;9.000;2022-07-05T06:19:51;96271.03;;;23.36;73.81
56038;BME280;41907;47.848;9.000;2022-07-05T06:22:17;96269.50;;;23.43;72.51
56038;BME280;41907;47.848;9.000;2022-07-05T06:24:42;96282.78;;;23.48;74.47
56038;BME280;41907;47.848;9.000;2022-07-05T06:27:08;96281.22;;;23.47;73.47
56038;BME280;41907;47.848;9.000;2022-07-05T06:29:33;96281.34;;;23.61;69.81
56038;BME280;41907;47.848;9.000;2022-07-05T06:31:58;96277.13;;;23.70;72.25
56038;BME280;41907;47.848;9.000;2022-07-05T06:34:25;96276.75;;;23.24;68.69
56038;BME280;41907;47.848;9.000;2022-07-05T06:36:50;96279.16;;;23.33;67.54
56038;BME280;41907;47.848;9.000;2022-07-05T06:39:15;96284.16;;;23.27;70.25
56038;BME280;41907;47.848;9.000;2022-07-05T06:41:41;96278.81;;;23.38;70.80
56038;BME280;41907;47.848;9.000;2022-07-05T06:44:06;96284.03;;;23.13;67.99
56038;BME280;41907;47.848;9.000;2022-07-05T06:46:32;96288.72;;;22.76;71.63
56038;BME280;41907;47.848;9.000;2022-07-05T06:48:57;96293.25;;;22.68;68.74
56038;BME280;41907;47.848;9.000;2022-07-05T06:51:22;96289.91;;;22.48;77.16
56038;BME280;41907;47.848;9.000;2022-07-05T06:53:48;96286.34;;;22.41;77.04
56038;BME280;41907;47.848;9.000;2022-07-05T06:56:13;96295.78;;;22.50;72.03
56038;BME280;41907;47.848;9.000;2022-07-05T06:58:38;96283.94;;;22.69;71.91
56038;BME280;41907;47.848;9.000;2022-07-05T07:01:04;96288.19;;;22.67;72.71
56038;BME280;41907;47.848;9.000;2022-07-05T07:03:29;96290.31;;;22.80;72.44
56038;BME280;41907;47.848;9.000;2022-07-05T07:05:54;96292.81;;;23.36;75.43
56038;BME280;41907;47.848;9.000;2022-07-05T07:08:20;96291.06;;;24.20;76.20
56038;BME280;41907;47.848;9.000;2022-07-05T07:11:04;96295.09;;;24.44;71.55
56038;BME280;41907;47.848;9.000;2022-07-05T07:13:29;96294.63;;;24.28;65.16
56038;BME280;41907;47.848;9.000;2022-07-05T07:15:54;96296.16;;;24.22;69.40
56038;BME280;41907;47.848;9.000;2022-07-05T07:18:20;96297.78;;;24.37;61.95
56038;BME280;41907;47.848;9.000;2022-07-05T07:20:45;96296.72;;;24.66;62.14
56038;BME280;41907;47.848;9.000;2022-07-05T07:23:11;96301.41;;;24.66;62.29
56038;BME280;41907;47.848;9.000;2022-07-05T07:25:36;96304.78;;;24.38;65.26
56038;BME280;41907;47.848;9.000;2022-07-05T07:28:01;96317.66;;;24.34;61.65
56038;BME280;41907;47.848;9.000;2022-07-05T07:30:28;96310.50;;;24.19;61.66
56038;BME280;41907;47.848;9.000;2022-07-05T07:32:54;96315.47;;;24.02;63.68
56038;BME280;41907;47.848;9.000;2022-07-05T07:35:20;96314.25;;;23.93;61.81
56038;BME280;41907;47.848;9.000;2022-07-05T07:37:45;96315.66;;;23.72;64.34
56038;BME280;41907;47.848;9.000;2022-07-05T07:40:11;96317.16;;;23.63;64.68
56038;BME280;41907;47.848;9.000;2022-07-05T07:42:37;96313.75;;;23.77;64.84
56038;BME280;41907;47.848;9.000;2022-07-05T07:45:03;96316.22;;;23.96;65.35
56038;BME280;41907;47.848;9.000;2022-07-05T07:47:33;96318.78;;;24.29;65.36
56038;BME280;41907;47.848;9.000;2022-07-05T07:50:00;96320.44;;;24.55;71.85
56038;BME280;41907;47.848;9.000;2022-07-05T07:52:25;96324.47;;;24.86;61.31
56038;BME280;41907;47.848;9.000;2022-07-05T07:54:51;96329.63;;;25.16;67.52
56038;BME280;41907;47.848;9.000;2022-07-05T07:57:16;96329.66;;;25.34;62.06
56038;BME280;41907;47.848;9.000;2022-07-05T07:59:42;96320.25;;;25.06;61.18
56038;BME280;41907;47.848;9.000;2022-07-05T08:02:07;96323.81;;;25.25;68.51
56038;BME280;41907;47.848;9.000;2022-07-05T08:04:33;96326.94;;;25.41;64.14
56038;BME280;41907;47.848;9.000;2022-07-05T08:06:58;96330.81;;;25.29;63.86
56038;BME280;41907;47.848;9.000;2022-07-05T08:09:24;96329.28;;;25.49;61.33
56038;BME280;41907;47.848;9.000;2022-07-05T08:11:49;96329.63;;;25.12;62.93
56038;BME280;41907;47.848;9.000;2022-07-05T08:14:16;96328.50;;;25.42;64.30
56038;BME280;41907;47.848;9.000;2022-07-05T08:16:42;96330.09;;;25.75;62.26
56038;BME280;41907;47.848;9.000;2022-07-05T08:19:08;96330.47;;;25.77;62.01
56038;BME280;41907;47.848;9.000;2022-07-05T08:21:52;96330.81;;;25.40;59.08
56038;BME280;41907;47.848;9.000;2022-07-05T08:24:17;96333.19;;;25.27;54.98
56038;BME280;41907;47.848;9.000;2022-07-05T08:26:42;96330.44;;;25.24;56.89
56038;BME280;41907;47.848;9.000;2022-07-05T08:29:12;96326.94;;;25.48;55.40
56038;BME280;41907;47.848;9.000;2022-07-05T08:31:40;96329.28;;;25.99;55.67
56038;BME280;41907;47.848;9.000;2022-07-05T08:34:06;96324.25;;;25.62;52.66
56038;BME280;41907;47.848;9.000;2022-07-05T08:36:32;96327.75;;;25.87;56.73
56038;BME280;41907;47.848;9.000;2022-07-05T08:38:57;96325.78;;;25.91;57.54
56038;BME280;41907;47.848;9.000;2022-07-05T08:41:23;96321.88;;;25.96;51.70
56038;BME280;41907;47.848;9.000;2022-07-05T08:43:49;96319.47;;;26.34;51.30
56038;BME280;41907;47.848;9.000;2022-07-05T08:46:18;96323.00;;;26.41;50.29
56038;BME280;41907;47.848;9.000;2022-07-05T08:48:48;96318.31;;;26.27;51.62
56038;BME280;41907;47.848;9.000;2022-07-05T08:51:15;96308.19;;;25.39;50.07
56038;BME280;41907;47.848;9.000;2022-07-05T08:53:46;96313.25;;;25.30;54.74
56038;BME280;41907;47.848;9.000;2022-07-05T08:56:13;96318.34;;;25.95;55.58
56038;BME280;41907;47.848;9.000;2022-07-05T08:58:39;96317.97;;;26.11;48.82
56038;BME280;41907;47.848;9.000;2022-07-05T09:01:06;96309.38;;;25.35;55.01
56038;BME280;41907;47.848;9.000;2022-07-05T09:03:33;96322.28;;;26.02;55.05
56038;BME280;41907;47.848;9.000;2022-07-05T09:06:05;96318.31;;;26.42;52.29
56038;BME280;41907;47.848;9.000;2022-07-05T09:08:34;96325.16;;;26.85;50.84
56038;BME280;41907;47.848;9.000;2022-07-05T09:11:04;96317.13;;;27.23;50.85
56038;BME280;41907;47.848;9.000;2022-07-05T09:13:40;96325.84;;;27.66;50.04
56038;BME280;41907;47.848;9.000;2022-07-05T09:16:06;96326.38;;;27.95;48.46
56038;BME280;41907;47.848;9.000;2022-07-05T09:18:50;96325.53;;;27.53;45.98
56038;BME280;41907;47.848;9.000;2022-07-05T09:23:42;96317.44;;;27.35;44.08
56038;BME280;41907;47.848;9.000;2022-07-05T09:26:08;96321.44;;;27.79;47.10
56038;BME280;41907;47.848;9.000;2022-07-05T09:28:33;96321.97;;;27.01;43.12
56038;BME280;41907;47.848;9.000;2022-07-05T09:30:59;96322.41;;;26.82;45.60
56038;BME280;41907;47.848;9.000;2022-07-05T09:33:24;96330.28;;;26.76;41.50
56038;BME280;41907;47.848;9.000;2022-07-05T09:35:54;96322.50;;;26.64;44.76
56038;BME280;41907;47.848;9.000;2022-07-05T09:38:23;96320.84;;;26.81;48.14
56038;BME280;41907;47.848;9.000;2022-07-05T09:40:56;96320.66;;;27.27;49.26
56038;BME280;41907;47.848;9.000;2022-07-05T09:43:23;96323.78;;;27.25;44.48
56038;BME280;41907;47.848;9.000;2022-07-05T09:46:01;96327.88;;;26.92;45.81
56038;BME280;41907;47.848;9.000;2022-07-05T09:48:29;96327.50;;;26.83;45.29
56038;BME280;41907;47.848;9.000;2022-07-05T09:51:09;96324.81;;;26.76;46.37
56038;BME280;41907;47.848;9.000;2022-07-05T09:56:11;96317.22;;;25.82;48.25
56038;BME280;41907;47.848;9.000;2022-07-05T09:58:37;96320.28;;;26.09;49.85
56038;BME280;41907;47.848;9.000;2022-07-05T10:01:31;96319.63;;;26.99;49.65
56038;BME280;41907;47.848;9.000;2022-07-05T10:03:57;96317.72;;;27.55;46.00
56038;BME280;41907;47.848;9.000;2022-07-05T10:06:25;96307.75;;;27.75;45.07
56038;BME280;41907;47.848;9.000;2022-07-05T10:08:52;96312.34;;;27.89;42.71
56038;BME280;41907;47.848;9.000;2022-07-05T10:11:18;96310.09;;;27.77;41.14
56038;BME280;41907;47.848;9.000;2022-07-05T10:13:48;96299.38;;;27.45;41.90
56038;BME280;41907;47.848;9.000;2022-07-05T10:16:15;96311.50;;;26.78;44.68
56038;BME280;41907;47.848;9.000;2022-07-05T10:18:44;96316.59;;;26.73;41.72
56038;BME280;41907;47.848;9.000;2022-07-05T10:21:14;96314.38;;;26.46;42.89
56038;BME280;41907;47.848;9.000;2022-07-05T10:23:48;96310.59;;;25.66;42.49
56038;BME280;41907;47.848;9.000;2022-07-05T10:26:15;96309.78;;;25.86;43.40
56038;BME280;41907;47.848;9.000;2022-07-05T10:28:45;96303.16;;;25.45;44.89
56038;BME280;41907;47.848;9.000;2022-07-05T10:31:15;96300.81;;;25.72;45.29
56038;BME280;41907;47.848;9.000;2022-07-05T10:33:41;96304.69;;;26.13;47.50
56038;BME280;41907;47.848;9.000;2022-07-05T10:36:09;96290.41;;;26.72;48.30
56038;BME280;41907;47.848;9.000;2022-07-05T10:38:41;96297.56;;;27.24;45.11
56038;BME280;41907;47.848;9.000;2022-07-05T10:41:11;96297.84;;;27.40;45.26
56038;BME280;41907;47.848;9.000;2022-07-05T10:43:37;96293.84;;;27.52;46.75
56038;BME280;41907;47.848;9.000;2022-07-05T10:46:03;96294.41;;;27.81;41.88
56038;BME280;41907;47.848;9.000;2022-07-05T10:48:32;96304.13;;;27.89;45.83
56038;BME280;41907;47.848;9.000;2022-07-05T10:51:01;96303.66;;;28.35;44.52
56038;BME280;41907;47.848;9.000;2022-07-05T10:58:39;96304.97;;;28.24;41.63
56038;BME280;41907;47.848;9.000;2022-07-05T11:06:30;96292.09;;;28.17;43.12
56038;BME280;41907;47.848;9.000;2022-07-05T11:13:49;96282.72;;;27.22;41.10
56038;BME280;41907;47.848;9.000;2022-07-05T11:16:21;96285.06;;;27.23;42.93
56038;BME280;41907;47.848;9.000;2022-07-05T11:18:52;96289.09;;;27.01;41.74
56038;BME280;41907;47.848;9.000;2022-07-05T11:21:20;96291.50;;;26.92;43.62
56038;BME280;41907;47.848;9.000;2022-07-05T11:23:46;96282.97;;;27.41;44.51
56038;BME280;41907;47.848;9.000;2022-07-05T11:26:12;96271.22;;;27.41;42.47
56038;BME280;41907;47.848;9.000;2022-07-05T11:28:42;96275.06;;;27.95;40.49
56038;BME280;41907;47.848;9.000;2022-07-05T11:31:12;96275.03;;;27.99;42.86
56038;BME280;41907;47.848;9.000;2022-07-05T11:36:07;96275.72;;;28.10;41.43
56038;BME280;41907;47.848;9.000;2022-07-05T11:41:32;96259.00;;;27.53;42.40
56038;BME280;41907;47.848;9.000;2022-07-05T11:43:57;96269.91;;;27.08;45.00
56038;BME280;41907;47.848;9.000;2022-07-05T11:46:23;96264.69;;;27.76;44.61
56038;BME280;41907;47.848;9.000;2022-07-05T11:48:50;96272.41;;;28.26;40.60
56038;BME280;41907;47.848;9.000;2022-07-05T11:51:16;96262.00;;;28.10;42.10
56038;BME280;41907;47.848;9.000;2022-07-05T11:53:42;96261.31;;;27.99;39.39
56038;BME280;41907;47.848;9.000;2022-07-05T11:56:09;96264.94;;;27.92;39.01
56038;BME280;41907;47.848;9.000;2022-07-05T11:58:34;96256.44;;;28.51;42.22
56038;BME280;41907;47.848;9.000;2022-07-05T12:01:00;96261.81;;;28.92;42.69
56038;BME280;41907;47.848;9.000;2022-07-05T12:03:27;96259.28;;;28.44;37.50
56038;BME280;41907;47.848;9.000;2022-07-05T12:05:52;96255.75;;;28.77;39.58
56038;BME280;41907;47.848;9.000;2022-07-05T12:08:22;96255.59;;;28.58;38.88
56038;BME280;41907;47.848;9.000;2022-07-05T12:10:48;96255.53;;;28.61;40.99
56038;BME280;41907;47.848;9.000;2022-07-05T12:13:51;96253.22;;;28.26;41.51
56038;BME280;41907;47.848;9.000;2022-07-05T12:16:17;96252.13;;;28.20;42.26
56038;BME280;41907;47.848;9.000;2022-07-05T12:18:49;96248.75;;;28.39;42.16
56038;BME280;41907;47.848;9.000;2022-07-05T12:21:15;96252.22;;;28.43;44.68
56038;BME280;41907;47.848;9.000;2022-07-05T12:23:42;96240.06;;;28.78;43.63
56038;BME280;41907;47.848;9.000;2022-07-05T12:26:09;96247.34;;;28.58;42.23
56038;BME280;41907;47.848;9.000;2022-07-05T12:28:35;96237.94;;;27.87;39.34
56038;BME280;41907;47.848;9.000;2022-07-05T12:31:15;96241.53;;;27.81;40.53
56038;BME280;41907;47.848;9.000;2022-07-05T12:33:40;96243.34;;;27.53;41.34
56038;BME280;41907;47.848;9.000;2022-07-05T12:36:11;96231.84;;;27.21;41.79
56038;BME280;41907;47.848;9.000;2022-07-05T12:38:36;96243.75;;;27.52;43.45
56038;BME280;41907;47.848;9.000;2022-07-05T12:41:02;96244.19;;;27.91;42.74
56038;BME280;41907;47.848;9.000;2022-07-05T12:43:27;96239.41;;;27.95;44.76
56038;BME280;41907;47.848;9.000;2022-07-05T12:46:06;96238.28;;;27.48;41.82
56038;BME280;41907;47.848;9.000;2022-07-05T12:48:33;96245.59;;;27.65;42.67
56038;BME280;41907;47.848;9.000;2022-07-05T12:50:59;96245.09;;;28.15;41.74
56038;BME280;41907;47.848;9.000;2022-07-05T12:53:25;96249.09;;;28.07;41.13
56038;BME280;41907;47.848;9.000;2022-07-05T12:56:11;96255.09;;;27.50;41.45
56038;BME280;41907;47.848;9.000;2022-07-05T12:58:58;96251.03;;;27.72;42.25
56038;BME280;41907;47.848;9.000;2022-07-05T13:01:29;96241.72;;;28.00;40.53
56038;BME280;41907;47.848;9.000;2022-07-05T13:09:11;96257.94;;;26.77;43.70
56038;BME280;41907;47.848;9.000;2022-07-05T13:11:37;96253.50;;;27.04;43.53
56038;BME280;41907;47.848;9.000;2022-07-05T13:14:03;96259.00;;;27.01;43.37
56038;BME280;41907;47.848;9.000;2022-07-05T13:16:28;96252.56;;;26.56;41.14
56038;BME280;41907;47.848;9.000;2022-07-05T13:18:53;96253.91;;;26.05;42.89
56038;BME280;41907;47.848;9.000;2022-07-05T13:21:19;96254.28;;;26.07;43.91
56038;BME280;41907;47.848;9.000;2022-07-05T13:23:44;96249.16;;;26.23;43.88
56038;BME280;41907;47.848;9.000;2022-07-05T13:26:10;96265.94;;;26.36;44.40
56038;BME280;41907;47.848;9.000;2022-07-05T13:28:35;96251.78;;;26.59;45.39